createdAt,value
2023-08-11T00:07:26.928Z,13.44
2023-08-11T00:09:53.694Z,13.48
2023-08-11T00:12:20.863Z,13.44
2023-08-11T00:14:47.773Z,13.41
2023-08-11T00:17:14.398Z,13.41
2023-08-11T00:19:42.149Z,13.32
2023-08-11T00:22:08.804Z,13.31
2023-08-11T00:24:35.493Z,13.36
2023-08-11T00:27:03.454Z,13.32
2023-08-11T00:29:32.076Z,13.30
2023-08-11T00:32:01.260Z,13.24
2023-08-11T00:34:28.209Z,13.25
2023-08-11T00:36:56.273Z,13.26
2023-08-11T00:39:23.483Z,13.28
2023-08-11T00:41:50.198Z,13.32
2023-08-11T00:44:17.522Z,13.26
2023-08-11T00:46:44.738Z,13.22
2023-08-11T00:49:11.698Z,13.17
2023-08-11T00:51:38.486Z,13.14
2023-08-11T00:54:07.453Z,13.16
2023-08-11T00:56:34.200Z,13.15
2023-08-11T00:59:02.081Z,13.15
2023-08-11T01:01:28.988Z,13.14
2023-08-11T01:03:56.119Z,13.14
2023-08-11T01:06:33.685Z,13.07
2023-08-11T01:09:22.494Z,13.09
2023-08-11T01:12:26.877Z,13.05
2023-08-11T01:15:16.472Z,13.01
2023-08-11T01:17:43.763Z,12.96
2023-08-11T01:20:17.207Z,12.88
2023-08-11T01:22:49.010Z,12.91
2023-08-11T01:25:15.957Z,12.89
2023-08-11T01:27:55.766Z,12.79
2023-08-11T01:30:23.547Z,12.89
2023-08-11T01:32:51.803Z,12.90
2023-08-11T01:35:29.751Z,12.82
2023-08-11T01:38:05.754Z,12.81
2023-08-11T01:40:32.438Z,12.78
2023-08-11T01:43:03.052Z,12.78
2023-08-11T01:45:30.293Z,12.77
2023-08-11T01:47:57.646Z,12.69
2023-08-11T01:50:25.144Z,12.67
2023-08-11T01:52:53.785Z,12.70
2023-08-11T01:55:20.872Z,12.67
2023-08-11T01:57:57.653Z,12.66
2023-08-11T02:00:27.034Z,12.65
2023-08-11T02:02:53.890Z,12.63
2023-08-11T02:05:20.959Z,12.60
2023-08-11T02:07:47.976Z,12.58
2023-08-11T02:10:14.836Z,12.54
2023-08-11T02:12:41.896Z,12.48
2023-08-11T02:15:11.917Z,12.50
2023-08-11T02:17:41.663Z,12.46
2023-08-11T02:20:35.106Z,12.42
2023-08-11T02:23:01.891Z,12.37
2023-08-11T02:25:28.633Z,12.40
2023-08-11T02:27:55.599Z,12.39
2023-08-11T02:30:23.476Z,12.36
2023-08-11T02:32:51.579Z,12.31
2023-08-11T02:35:18.921Z,12.27
2023-08-11T02:37:46.424Z,12.31
2023-08-11T02:40:13.229Z,12.30
2023-08-11T02:42:51.004Z,12.38
2023-08-11T02:45:17.828Z,12.31
2023-08-11T02:47:44.664Z,12.28
2023-08-11T02:50:12.212Z,12.25
2023-08-11T02:52:39.110Z,12.24
2023-08-11T02:55:07.311Z,12.30
2023-08-11T02:57:35.117Z,12.26
2023-08-11T03:00:02.677Z,12.29
2023-08-11T03:02:29.533Z,12.25
2023-08-11T03:04:56.371Z,12.21
2023-08-11T03:07:24.256Z,12.19
2023-08-11T03:09:51.384Z,12.17
2023-08-11T03:12:18.138Z,12.13
2023-08-11T03:14:44.976Z,12.14
2023-08-11T03:17:14.524Z,12.11
2023-08-11T03:19:41.725Z,12.07
2023-08-11T03:22:08.737Z,12.05
2023-08-11T03:24:36.394Z,12.08
2023-08-11T03:27:03.178Z,12.03
2023-08-11T03:29:29.912Z,12.04
2023-08-11T03:31:56.667Z,12.01
2023-08-11T03:34:23.845Z,12.03
2023-08-11T03:36:50.535Z,11.96
2023-08-11T03:39:18.037Z,11.95
2023-08-11T03:41:44.764Z,11.94
2023-08-11T03:44:11.579Z,11.91
2023-08-11T03:46:38.666Z,11.93
2023-08-11T03:49:07.993Z,11.91
2023-08-11T03:51:35.893Z,11.91
2023-08-11T03:54:03.770Z,11.91
2023-08-11T03:56:33.517Z,11.82
2023-08-11T03:59:00.337Z,11.83
2023-08-11T04:01:27.397Z,11.82
2023-08-11T04:03:54.221Z,11.77
2023-08-11T04:06:21.000Z,11.74
2023-08-11T04:08:47.771Z,11.77
2023-08-11T04:11:14.577Z,11.83
2023-08-11T04:13:41.403Z,11.78
2023-08-11T04:16:08.137Z,11.78
2023-08-11T04:18:35.015Z,11.71
2023-08-11T04:21:01.716Z,11.77
2023-08-11T04:23:28.509Z,11.78
2023-08-11T04:25:55.758Z,11.81
2023-08-11T04:28:23.354Z,11.77
2023-08-11T04:30:50.412Z,11.77
2023-08-11T04:33:17.712Z,11.75
2023-08-11T04:35:44.828Z,11.75
2023-08-11T04:38:12.874Z,11.85
2023-08-11T04:40:41.280Z,11.87
2023-08-11T04:43:08.115Z,11.87
2023-08-11T04:45:39.281Z,11.89
2023-08-11T04:48:07.102Z,11.86
2023-08-11T04:50:35.734Z,11.94
2023-08-11T04:53:02.678Z,11.92
2023-08-11T04:55:31.434Z,12.03
2023-08-11T04:58:00.634Z,12.11
2023-08-11T05:00:27.715Z,12.16
2023-08-11T05:02:55.098Z,12.21
2023-08-11T05:05:22.797Z,12.28
2023-08-11T05:07:49.563Z,12.36
2023-08-11T05:10:16.294Z,12.38
2023-08-11T05:12:43.045Z,12.44
2023-08-11T05:15:10.312Z,12.49
2023-08-11T05:17:37.138Z,12.58
2023-08-11T05:20:08.478Z,12.68
2023-08-11T05:22:36.261Z,12.72
2023-08-11T05:25:04.505Z,12.81
2023-08-11T05:27:31.493Z,12.90
2023-08-11T05:29:58.463Z,13.01
2023-08-11T05:32:25.255Z,13.18
2023-08-11T05:34:53.840Z,13.36
2023-08-11T05:37:20.616Z,13.55
2023-08-11T05:39:47.288Z,13.77
2023-08-11T05:42:14.213Z,13.97
2023-08-11T05:44:40.958Z,14.11
2023-08-11T05:47:09.262Z,14.32
2023-08-11T05:49:36.233Z,14.44
2023-08-11T05:52:03.099Z,14.56
2023-08-11T05:54:29.870Z,14.73
2023-08-11T05:56:56.805Z,14.87
2023-08-11T05:59:23.453Z,15.02
2023-08-11T06:01:50.337Z,15.17
2023-08-11T06:04:17.837Z,15.35
2023-08-11T06:06:44.734Z,15.52
2023-08-11T06:09:11.410Z,15.70
2023-08-11T06:11:38.286Z,15.88
2023-08-11T06:14:04.990Z,16.09
2023-08-11T06:16:31.816Z,16.29
2023-08-11T06:18:58.598Z,16.39
2023-08-11T06:21:25.417Z,16.54
2023-08-11T06:23:52.092Z,16.70
2023-08-11T06:26:18.765Z,16.82
2023-08-11T06:28:46.293Z,16.97
2023-08-11T06:31:13.433Z,17.09
2023-08-11T06:33:40.189Z,17.23
2023-08-11T06:36:07.039Z,17.38
2023-08-11T06:38:33.915Z,17.53
2023-08-11T06:41:00.786Z,17.66
2023-08-11T06:43:27.958Z,17.83
2023-08-11T06:45:54.925Z,18.00
2023-08-11T06:48:21.642Z,18.14
2023-08-11T06:50:48.717Z,18.30
2023-08-11T06:53:15.446Z,18.41
2023-08-11T06:55:42.188Z,18.50
2023-08-11T06:58:08.927Z,18.61
2023-08-11T07:00:37.816Z,18.74
2023-08-11T07:03:05.223Z,18.82
2023-08-11T07:05:32.060Z,18.92
2023-08-11T07:07:58.712Z,18.99
2023-08-11T07:10:25.471Z,19.10
2023-08-11T07:12:52.177Z,19.17
2023-08-11T07:15:18.997Z,19.38
2023-08-11T07:17:45.954Z,19.53
2023-08-11T07:20:12.753Z,19.69
2023-08-11T07:22:40.008Z,19.81
2023-08-11T07:25:06.924Z,20.00
2023-08-11T07:27:33.910Z,20.09
2023-08-11T07:30:01.150Z,20.21
2023-08-11T07:32:28.141Z,20.28
2023-08-11T07:34:55.119Z,20.39
2023-08-11T07:37:21.845Z,20.48
2023-08-11T07:39:48.691Z,20.57
2023-08-11T07:42:15.367Z,20.69
2023-08-11T07:44:42.162Z,20.82
2023-08-11T07:47:09.044Z,20.86
2023-08-11T07:49:35.976Z,20.95
2023-08-11T07:52:02.695Z,20.98
2023-08-11T07:54:29.599Z,21.14
2023-08-11T07:56:56.305Z,21.25
2023-08-11T07:59:23.090Z,21.36
2023-08-11T08:01:53.335Z,21.42
2023-08-11T08:04:20.376Z,21.40
2023-08-11T08:06:47.258Z,21.47
2023-08-11T08:09:15.918Z,21.65
2023-08-11T08:11:47.491Z,21.82
2023-08-11T08:14:15.043Z,21.91
2023-08-11T08:16:48.564Z,22.00
2023-08-11T08:19:16.017Z,22.08
2023-08-11T08:21:43.656Z,22.02
2023-08-11T08:24:10.634Z,22.12
2023-08-11T08:26:37.434Z,22.20
2023-08-11T08:29:05.025Z,22.32
2023-08-11T08:31:31.757Z,22.35
2023-08-11T08:33:58.633Z,22.46
2023-08-11T08:36:25.673Z,22.57
2023-08-11T08:38:52.685Z,22.73
2023-08-11T08:41:21.496Z,22.86
2023-08-11T08:43:48.589Z,22.90
2023-08-11T08:46:17.221Z,22.93
2023-08-11T08:48:50.129Z,23.09
2023-08-11T08:51:17.202Z,23.27
2023-08-11T08:53:44.193Z,23.40
2023-08-11T08:56:10.923Z,23.48
2023-08-11T08:58:37.728Z,23.59
2023-08-11T09:01:04.843Z,23.66
2023-08-11T09:03:32.064Z,23.79
2023-08-11T09:05:58.990Z,23.96
2023-08-11T09:08:25.728Z,23.84
2023-08-11T09:10:52.518Z,23.97
2023-08-11T09:13:19.324Z,24.00
2023-08-11T09:15:46.097Z,24.07
2023-08-11T09:18:17.856Z,24.13
2023-08-11T09:20:48.481Z,24.19
2023-08-11T09:23:18.290Z,24.24
2023-08-11T09:25:45.007Z,24.31
2023-08-11T09:28:11.724Z,24.33
2023-08-11T09:30:38.779Z,24.41
2023-08-11T09:33:09.051Z,24.54
2023-08-11T09:35:36.638Z,24.49
2023-08-11T09:38:04.202Z,24.54
2023-08-11T09:40:32.916Z,24.67
2023-08-11T09:43:00.612Z,24.73
2023-08-11T09:45:27.341Z,24.95
2023-08-11T09:47:54.003Z,25.05
2023-08-11T09:50:21.917Z,25.12
2023-08-11T09:52:48.684Z,25.25
2023-08-11T09:55:16.458Z,25.30
2023-08-11T09:57:44.640Z,25.22
2023-08-11T10:00:14.674Z,25.29
2023-08-11T10:02:42.870Z,25.39
2023-08-11T10:05:09.951Z,25.41
2023-08-11T10:07:41.186Z,25.43
2023-08-11T10:10:14.010Z,25.57
2023-08-11T10:12:49.364Z,25.61
2023-08-11T10:15:18.568Z,25.66
2023-08-11T10:17:45.321Z,25.58
2023-08-11T10:20:12.776Z,25.69
2023-08-11T10:22:39.492Z,25.68
2023-08-11T10:25:07.973Z,25.78
2023-08-11T10:27:40.435Z,25.81
2023-08-11T10:30:08.758Z,25.92
2023-08-11T10:32:35.711Z,26.04
2023-08-11T10:35:02.437Z,25.95
2023-08-11T10:37:32.647Z,25.98
2023-08-11T10:40:06.794Z,25.93
2023-08-11T10:42:33.689Z,26.03
2023-08-11T10:45:11.772Z,26.19
2023-08-11T10:47:39.682Z,26.24
2023-08-11T10:50:10.080Z,26.44
2023-08-11T10:53:08.774Z,26.58
2023-08-11T10:55:40.902Z,26.68
2023-08-11T10:58:15.532Z,26.64
2023-08-11T11:00:42.582Z,26.64
2023-08-11T11:03:10.331Z,26.81
2023-08-11T11:05:37.079Z,26.91
2023-08-11T11:08:03.876Z,26.84
2023-08-11T11:10:43.780Z,26.57
2023-08-11T11:13:16.393Z,26.44
2023-08-11T11:15:43.154Z,26.51
2023-08-11T11:18:10.480Z,26.70
2023-08-11T11:20:38.885Z,26.89
2023-08-11T11:23:06.601Z,26.87
2023-08-11T11:25:33.480Z,26.79
2023-08-11T11:28:00.212Z,26.76
2023-08-11T11:30:26.866Z,26.86
2023-08-11T11:32:53.641Z,26.89
2023-08-11T11:35:20.373Z,26.90
2023-08-11T11:37:47.517Z,27.04
2023-08-11T11:40:15.029Z,27.18
2023-08-11T11:42:42.630Z,27.38
2023-08-11T11:45:10.693Z,27.64
2023-08-11T11:47:38.191Z,27.79
2023-08-11T11:50:08.867Z,27.77
2023-08-11T11:52:37.743Z,27.71
2023-08-11T11:55:07.440Z,27.36
2023-08-11T11:57:35.276Z,27.26
2023-08-11T12:00:04.430Z,27.36
2023-08-11T12:02:41.433Z,27.56
2023-08-11T12:05:09.449Z,27.47
2023-08-11T12:07:37.524Z,27.40
2023-08-11T12:10:07.834Z,27.63
2023-08-11T12:12:34.621Z,27.65
2023-08-11T12:15:08.512Z,27.68
2023-08-11T12:17:36.130Z,27.50
2023-08-11T12:20:11.339Z,27.58
2023-08-11T12:22:38.281Z,27.40
2023-08-11T12:25:05.350Z,27.37
2023-08-11T12:27:32.238Z,27.64
2023-08-11T12:29:58.924Z,27.98
2023-08-11T12:32:25.675Z,28.19
2023-08-11T12:34:52.676Z,28.07
2023-08-11T12:37:19.442Z,28.05
2023-08-11T12:39:46.146Z,28.06
2023-08-11T12:42:13.401Z,28.05
2023-08-11T12:44:40.573Z,27.88
2023-08-11T12:47:07.660Z,28.05
2023-08-11T12:49:34.501Z,28.02
2023-08-11T12:52:01.402Z,28.00
2023-08-11T12:54:28.055Z,28.20
2023-08-11T12:56:54.772Z,28.33
2023-08-11T12:59:21.454Z,28.45
2023-08-11T13:01:48.410Z,28.34
2023-08-11T13:04:15.232Z,28.42
2023-08-11T13:06:42.041Z,28.31
2023-08-11T13:09:08.872Z,28.16
2023-08-11T13:11:35.724Z,28.37
2023-08-11T13:14:03.646Z,28.49
2023-08-11T13:16:30.656Z,28.36
2023-08-11T13:18:57.452Z,28.51
2023-08-11T13:21:24.303Z,28.63
2023-08-11T13:23:52.078Z,28.61
2023-08-11T13:26:18.853Z,28.66
2023-08-11T13:28:45.557Z,28.91
2023-08-11T13:31:12.333Z,28.81
2023-08-11T13:33:39.267Z,28.65
2023-08-11T13:36:06.288Z,28.48
2023-08-11T13:38:33.061Z,28.65
2023-08-11T13:40:59.844Z,28.52
2023-08-11T13:43:26.551Z,28.74
2023-08-11T13:45:54.755Z,28.60
2023-08-11T13:48:24.772Z,28.58
2023-08-11T13:50:52.532Z,28.77
2023-08-11T13:53:19.329Z,28.95
2023-08-11T13:55:46.123Z,28.84
2023-08-11T13:58:12.978Z,28.80
2023-08-11T14:00:39.783Z,29.05
2023-08-11T14:03:06.544Z,28.90
2023-08-11T14:05:33.329Z,28.94
2023-08-11T14:08:00.005Z,29.13
2023-08-11T14:10:27.120Z,29.20
2023-08-11T14:12:54.352Z,29.39
2023-08-11T14:15:21.156Z,29.66
2023-08-11T14:17:48.224Z,30.08
2023-08-11T14:20:15.149Z,29.78
2023-08-11T14:22:41.811Z,29.67
2023-08-11T14:25:08.805Z,29.57
2023-08-11T14:27:35.489Z,29.45
2023-08-11T14:30:02.307Z,29.70
2023-08-11T14:32:29.735Z,29.56
2023-08-11T14:34:56.866Z,29.44
2023-08-11T14:37:23.565Z,29.49
2023-08-11T14:39:50.442Z,29.53
2023-08-11T14:42:17.622Z,29.61
2023-08-11T14:44:44.469Z,29.57
2023-08-11T14:47:15.196Z,29.65
2023-08-11T14:49:43.941Z,29.85
2023-08-11T14:52:11.643Z,30.11
2023-08-11T14:54:38.769Z,30.30
2023-08-11T14:57:05.503Z,30.38
2023-08-11T14:59:32.630Z,30.37
2023-08-11T15:01:59.737Z,30.63
2023-08-11T15:04:27.876Z,30.31
2023-08-11T15:06:54.827Z,30.42
2023-08-11T15:09:21.683Z,30.55
2023-08-11T15:11:49.262Z,31.00
2023-08-11T15:14:17.226Z,30.77
2023-08-11T15:16:44.099Z,30.89
2023-08-11T15:19:10.815Z,30.70
2023-08-11T15:21:37.782Z,30.62
2023-08-11T15:24:04.860Z,30.67
2023-08-11T15:26:31.598Z,31.15
2023-08-11T15:29:00.633Z,31.72
2023-08-11T15:31:27.724Z,31.58
2023-08-11T15:33:54.425Z,31.65
2023-08-11T15:36:21.158Z,32.97
2023-08-11T15:38:48.808Z,34.06
2023-08-11T15:41:15.526Z,35.19
2023-08-11T15:43:42.200Z,35.46
2023-08-11T15:46:09.072Z,36.91
2023-08-11T15:48:35.948Z,38.25
2023-08-11T15:51:04.150Z,39.69
2023-08-11T15:53:31.034Z,40.03
2023-08-11T15:55:57.809Z,40.70
2023-08-11T15:58:24.498Z,40.07
2023-08-11T16:00:52.368Z,39.88
2023-08-11T16:03:21.475Z,40.77
2023-08-11T16:05:49.082Z,39.80
2023-08-11T16:08:15.854Z,40.65
2023-08-11T16:10:43.243Z,39.62
2023-08-11T16:13:11.166Z,40.36
2023-08-11T16:15:38.246Z,41.10
2023-08-11T16:18:09.003Z,40.17
2023-08-11T16:20:36.524Z,40.21
2023-08-11T16:23:04.097Z,40.84
2023-08-11T16:25:30.825Z,40.70
2023-08-11T16:27:57.645Z,41.17
2023-08-11T16:30:24.309Z,42.76
2023-08-11T16:32:51.123Z,43.08
2023-08-11T16:35:17.927Z,42.82
2023-08-11T16:37:44.571Z,41.86
2023-08-11T16:40:12.023Z,41.55
2023-08-11T16:42:38.805Z,41.88
2023-08-11T16:45:05.981Z,43.24
2023-08-11T16:47:32.733Z,43.03
2023-08-11T16:49:59.644Z,43.26
2023-08-11T16:52:26.454Z,43.23
2023-08-11T16:54:53.146Z,43.59
2023-08-11T16:57:19.959Z,44.09
2023-08-11T16:59:46.620Z,44.03
2023-08-11T17:02:13.535Z,42.82
2023-08-11T17:04:40.372Z,41.90
2023-08-11T17:07:07.171Z,41.94
2023-08-11T17:09:33.855Z,41.86
2023-08-11T17:12:00.651Z,41.48
2023-08-11T17:14:27.343Z,41.66
2023-08-11T17:16:54.296Z,41.41
2023-08-11T17:19:21.024Z,41.02
2023-08-11T17:21:47.707Z,40.58
2023-08-11T17:24:14.334Z,39.43
2023-08-11T17:26:41.319Z,37.56
2023-08-11T17:29:07.960Z,35.85
2023-08-11T17:31:34.988Z,34.09
2023-08-11T17:34:01.745Z,32.01
2023-08-11T17:36:29.919Z,30.76
2023-08-11T17:39:00.007Z,29.64
2023-08-11T17:41:27.582Z,28.44
2023-08-11T17:43:54.946Z,27.62
2023-08-11T17:46:21.924Z,26.76
2023-08-11T17:48:50.801Z,26.13
2023-08-11T17:51:17.558Z,25.50
2023-08-11T17:53:49.767Z,25.05
2023-08-11T17:56:25.332Z,24.77
2023-08-11T17:58:52.761Z,24.30
2023-08-11T18:01:20.462Z,24.11
2023-08-11T18:03:47.254Z,23.87
2023-08-11T18:06:13.913Z,23.54
2023-08-11T18:08:40.633Z,23.39
2023-08-11T18:11:07.582Z,23.22
2023-08-11T18:13:34.371Z,22.96
2023-08-11T18:16:01.148Z,22.77
2023-08-11T18:18:27.922Z,22.50
2023-08-11T18:20:57.557Z,22.43
2023-08-11T18:23:26.544Z,22.29
2023-08-11T18:25:53.501Z,22.07
2023-08-11T18:28:20.240Z,21.99
2023-08-11T18:30:47.010Z,21.94
2023-08-11T18:33:13.716Z,21.81
2023-08-11T18:35:40.484Z,21.67
2023-08-11T18:38:07.236Z,21.45
2023-08-11T18:40:33.974Z,21.33
2023-08-11T18:43:00.890Z,21.25
2023-08-11T18:45:27.529Z,21.05
2023-08-11T18:47:55.259Z,20.83
2023-08-11T18:50:22.042Z,20.73
2023-08-11T18:52:50.803Z,20.64
2023-08-11T18:55:18.531Z,20.66
2023-08-11T18:57:45.222Z,20.69
2023-08-11T19:00:13.826Z,20.71
2023-08-11T19:02:40.758Z,20.66
2023-08-11T19:05:07.943Z,20.62
2023-08-11T19:07:34.725Z,20.44
2023-08-11T19:10:01.477Z,20.23
2023-08-11T19:12:28.249Z,20.11
2023-08-11T19:14:55.096Z,20.08
2023-08-11T19:17:21.849Z,20.06
2023-08-11T19:19:48.596Z,20.09
2023-08-11T19:22:15.481Z,20.01
2023-08-11T19:24:42.224Z,19.89
2023-08-11T19:27:10.090Z,19.80
2023-08-11T19:29:36.798Z,19.74
2023-08-11T19:32:03.843Z,19.67
2023-08-11T19:34:30.503Z,19.65
2023-08-11T19:36:57.268Z,19.63
2023-08-11T19:39:23.937Z,19.54
2023-08-11T19:41:50.729Z,19.53
2023-08-11T19:44:17.537Z,19.48
2023-08-11T19:46:44.288Z,19.43
2023-08-11T19:49:10.973Z,19.43
2023-08-11T19:51:37.951Z,19.40
2023-08-11T19:54:04.796Z,19.35
2023-08-11T19:56:31.570Z,19.33
2023-08-11T19:58:58.333Z,19.28
2023-08-11T20:01:25.096Z,19.26
2023-08-11T20:03:51.900Z,19.19
2023-08-11T20:06:18.720Z,19.15
2023-08-11T20:08:45.471Z,19.11
2023-08-11T20:11:12.253Z,19.04
2023-08-11T20:13:38.955Z,18.95
2023-08-11T20:16:05.720Z,19.00
2023-08-11T20:18:32.554Z,18.98
2023-08-11T20:20:59.276Z,18.97
2023-08-11T20:23:25.969Z,18.93
2023-08-11T20:25:52.782Z,18.92
2023-08-11T20:28:19.428Z,18.84
2023-08-11T20:30:46.215Z,18.85
2023-08-11T20:33:13.067Z,18.71
2023-08-11T20:35:39.907Z,18.63
2023-08-11T20:38:06.634Z,18.61
2023-08-11T20:40:34.754Z,18.53
2023-08-11T20:43:01.892Z,18.52
2023-08-11T20:45:31.131Z,18.50
2023-08-11T20:47:58.765Z,18.46
2023-08-11T20:50:25.531Z,18.46
2023-08-11T20:52:52.475Z,18.41
2023-08-11T20:55:19.183Z,18.35
2023-08-11T20:57:48.540Z,18.32
2023-08-11T21:00:15.791Z,18.37
2023-08-11T21:02:42.529Z,18.32
2023-08-11T21:05:09.422Z,18.26
2023-08-11T21:07:36.162Z,18.20
2023-08-11T21:10:03.962Z,18.21
2023-08-11T21:12:30.763Z,18.24
2023-08-11T21:14:57.459Z,18.20
2023-08-11T21:17:24.232Z,18.15
2023-08-11T21:19:51.139Z,18.15
2023-08-11T21:22:17.861Z,18.11
2023-08-11T21:24:44.492Z,18.08
2023-08-11T21:27:11.694Z,18.08
2023-08-11T21:29:38.779Z,18.05
2023-08-11T21:32:06.036Z,18.03
2023-08-11T21:34:32.714Z,17.95
2023-08-11T21:37:01.504Z,17.98
2023-08-11T21:39:28.308Z,17.99
2023-08-11T21:41:55.059Z,17.97
2023-08-11T21:44:21.799Z,17.94
2023-08-11T21:46:48.544Z,17.92
2023-08-11T21:49:15.373Z,17.94
2023-08-11T21:51:42.007Z,17.94
2023-08-11T21:54:08.784Z,17.91
2023-08-11T21:56:35.520Z,17.99
2023-08-11T21:59:02.194Z,18.01
2023-08-11T22:01:28.919Z,18.04
2023-08-11T22:03:55.739Z,18.07
2023-08-11T22:06:22.358Z,18.07
2023-08-11T22:08:49.106Z,18.08
2023-08-11T22:11:30.195Z,18.11
2023-08-11T22:14:02.410Z,18.12
2023-08-11T22:16:29.156Z,18.17
2023-08-11T22:18:56.064Z,18.19
2023-08-11T22:21:22.737Z,18.19
2023-08-11T22:23:49.514Z,18.17
2023-08-11T22:26:16.167Z,18.18
2023-08-11T22:28:43.166Z,18.23
2023-08-11T22:31:09.917Z,18.22
2023-08-11T22:33:36.697Z,18.22
2023-08-11T22:36:03.496Z,18.35
2023-08-11T22:38:30.546Z,18.41
2023-08-11T22:40:57.206Z,18.44
2023-08-11T22:43:23.983Z,18.39
2023-08-11T22:45:50.799Z,18.33
2023-08-11T22:48:17.556Z,18.34
2023-08-11T22:50:44.292Z,18.32
2023-08-11T22:53:11.052Z,18.34
2023-08-11T22:55:37.707Z,18.35
2023-08-11T22:58:04.545Z,18.33
2023-08-11T23:00:31.420Z,18.35
2023-08-11T23:02:58.307Z,18.45
2023-08-11T23:05:24.996Z,18.54
2023-08-11T23:07:55.253Z,18.56
2023-08-11T23:10:21.931Z,18.54
2023-08-11T23:12:48.762Z,18.58
2023-08-11T23:15:15.572Z,18.61
2023-08-11T23:17:42.223Z,18.62
2023-08-11T23:20:10.339Z,18.65
2023-08-11T23:22:37.035Z,18.61
2023-08-11T23:25:06.335Z,18.57
2023-08-11T23:27:33.197Z,18.57
2023-08-11T23:30:00.793Z,18.53
2023-08-11T23:32:30.543Z,18.51
2023-08-11T23:34:58.078Z,18.49
2023-08-11T23:37:24.927Z,18.44
2023-08-11T23:39:51.656Z,18.45
2023-08-11T23:42:18.364Z,18.43
2023-08-11T23:44:45.082Z,18.41
2023-08-11T23:47:12.292Z,18.42
2023-08-11T23:49:39.304Z,18.40
2023-08-11T23:52:06.540Z,18.36
2023-08-11T23:54:33.537Z,18.39
2023-08-11T23:57:00.388Z,18.40
2023-08-11T23:59:27.062Z,18.43
